This is the latest recevied weather packets stored in our database for station/object K2ATL. If no packets are shown the sender has not sent any weather packets the latest 10 day(s).
| Time | Temp. | Humidity | Pressure | Rain* | Wind** | Luminosity | Snow |
|---|---|---|---|---|---|---|---|
| 1777865469 | 11.67° C | 56% | 1102.5 hPa | 0 mm | - | 0 W/m² | - |
| 1777865166 | 11.67° C | 58% | 1102.6 hPa | 0 mm | - | 0 W/m² | - |
| 1777864863 | 11.67° C | 59% | 1102.6 hPa | 0 mm | - | 0 W/m² | - |
| 1777864560 | 11.11° C | 60% | 1102.6 hPa | 0 mm | - | 0 W/m² | - |
| 1777864256 | 11.11° C | 62% | 1102.5 hPa | 0 mm | - | 0 W/m² | - |
| 1777863954 | 11.11° C | 60% | 1102.4 hPa | 0 mm | - | 0 W/m² | - |
| 1777863650 | 11.67° C | 59% | 1102.8 hPa | 0 mm | - | 0 W/m² | - |
| 1777863347 | 11.67° C | 59% | 1102.7 hPa | 0 mm | - | 0 W/m² | - |
| 1777863044 | 11.67° C | 58% | 1102.6 hPa | 0 mm | - | 0 W/m² | - |
| 1777862741 | 11.67° C | 59% | 1102.8 hPa | 0 mm | - | 0 W/m² | - |
| 1777862438 | 12.22° C | 57% | 1102.8 hPa | 0 mm | - | 0 W/m² | - |
| 1777862134 | 12.78° C | 53% | 1102.8 hPa | 0 mm | - | 0 W/m² | - |
| 1777861830 | 12.78° C | 52% | 1102.5 hPa | 0 mm | - | 0 W/m² | - |
| 1777861526 | 12.78° C | 53% | 1102.7 hPa | 0 mm | - | 0 W/m² | - |
| 1777861223 | 12.22° C | 54% | 1102.5 hPa | 0 mm | - | 0 W/m² | - |
| 1777860920 | 12.78° C | 53% | 1102.7 hPa | 0 mm | - | 0 W/m² | - |
| 1777860617 | 13.33° C | 51% | 1102.5 hPa | 0 mm | - | 0 W/m² | - |
| 1777860314 | 13.33° C | 51% | 1102.4 hPa | 0 mm | - | 0 W/m² | - |
| 1777860011 | 13.33° C | 51% | 1102.4 hPa | 0 mm | - | 0 W/m² | - |
| 1777859707 | 13.89° C | 50% | 1102.4 hPa | 0 mm | - | 0 W/m² | - |
| 1777859403 | 13.89° C | 49% | 1102.4 hPa | 0 mm | - | 0 W/m² | - |
| 1777859099 | 13.89° C | 49% | 1102.5 hPa | 0 mm | - | 0 W/m² | - |
| 1777858796 | 13.89° C | 49% | 1102.4 hPa | 0 mm | - | 0 W/m² | - |
| 1777858495 | 13.89° C | 49% | 1102.5 hPa | 0 mm | - | 0 W/m² | - |
| 1777858190 | 13.89° C | 49% | 1102.3 hPa | 0 mm | - | 0 W/m² | - |
* Rain latest hour (hover to see other rain measurements)
** Current wind speed in m/s (hover to see current wind gust speed)